sensor_id;sensor_type;location;lat;lon;timestamp;temperature;humidity
32446;DHT22;18899;50.748;7.102;2024-01-16T00:01:42;3.10;99.90
32446;DHT22;18899;50.748;7.102;2024-01-16T00:04:08;3.10;99.90
32446;DHT22;18899;50.748;7.102;2024-01-16T00:06:33;3.10;99.90
32446;DHT22;18899;50.748;7.102;2024-01-16T00:08:59;3.10;99.90
32446;DHT22;18899;50.748;7.102;2024-01-16T00:11:24;3.00;99.90
32446;DHT22;18899;50.748;7.102;2024-01-16T00:13:50;3.10;99.90
32446;DHT22;18899;50.748;7.102;2024-01-16T00:16:15;3.30;99.90
32446;DHT22;18899;50.748;7.102;2024-01-16T00:18:41;3.20;99.90
32446;DHT22;18899;50.748;7.102;2024-01-16T00:21:06;3.10;99.90
32446;DHT22;18899;50.748;7.102;2024-01-16T00:23:32;3.00;99.90
32446;DHT22;18899;50.748;7.102;2024-01-16T00:25:57;3.20;99.90
32446;DHT22;18899;50.748;7.102;2024-01-16T00:28:23;3.20;99.90
32446;DHT22;18899;50.748;7.102;2024-01-16T00:30:48;3.20;99.90
32446;DHT22;18899;50.748;7.102;2024-01-16T00:33:15;3.10;99.90
32446;DHT22;18899;50.748;7.102;2024-01-16T00:35:41;3.30;99.90
32446;DHT22;18899;50.748;7.102;2024-01-16T00:38:06;3.40;99.90
32446;DHT22;18899;50.748;7.102;2024-01-16T00:40:32;3.30;99.90
32446;DHT22;18899;50.748;7.102;2024-01-16T00:42:57;3.30;99.90
32446;DHT22;18899;50.748;7.102;2024-01-16T00:45:23;3.20;99.90
32446;DHT22;18899;50.748;7.102;2024-01-16T00:47:49;3.10;99.90
32446;DHT22;18899;50.748;7.102;2024-01-16T00:50:14;3.10;99.90
32446;DHT22;18899;50.748;7.102;2024-01-16T00:52:40;3.10;99.90
32446;DHT22;18899;50.748;7.102;2024-01-16T00:55:06;3.10;99.90
32446;DHT22;18899;50.748;7.102;2024-01-16T00:57:31;3.00;99.90
32446;DHT22;18899;50.748;7.102;2024-01-16T00:59:57;3.00;99.90
32446;DHT22;18899;50.748;7.102;2024-01-16T01:02:22;3.00;99.90
32446;DHT22;18899;50.748;7.102;2024-01-16T01:04:48;3.00;99.90
32446;DHT22;18899;50.748;7.102;2024-01-16T01:07:14;3.10;99.90
32446;DHT22;18899;50.748;7.102;2024-01-16T01:09:40;3.00;99.90
32446;DHT22;18899;50.748;7.102;2024-01-16T01:12:06;2.90;99.90
32446;DHT22;18899;50.748;7.102;2024-01-16T01:14:31;2.90;99.90
32446;DHT22;18899;50.748;7.102;2024-01-16T01:16:57;3.00;99.90
32446;DHT22;18899;50.748;7.102;2024-01-16T01:19:23;3.20;99.90
32446;DHT22;18899;50.748;7.102;2024-01-16T01:21:49;3.20;99.90
32446;DHT22;18899;50.748;7.102;2024-01-16T01:24:15;3.20;99.90
32446;DHT22;18899;50.748;7.102;2024-01-16T01:26:43;3.30;99.90
32446;DHT22;18899;50.748;7.102;2024-01-16T01:29:09;3.20;99.90
32446;DHT22;18899;50.748;7.102;2024-01-16T01:31:34;3.30;99.90
32446;DHT22;18899;50.748;7.102;2024-01-16T01:34:00;3.20;99.90
32446;DHT22;18899;50.748;7.102;2024-01-16T01:36:27;3.10;99.90
32446;DHT22;18899;50.748;7.102;2024-01-16T01:38:52;3.00;99.90
32446;DHT22;18899;50.748;7.102;2024-01-16T01:41:18;3.10;99.90
32446;DHT22;18899;50.748;7.102;2024-01-16T01:43:43;3.10;99.90
32446;DHT22;18899;50.748;7.102;2024-01-16T01:46:16;3.20;99.90
32446;DHT22;18899;50.748;7.102;2024-01-16T01:48:43;3.30;99.90
32446;DHT22;18899;50.748;7.102;2024-01-16T01:51:10;3.40;99.90
32446;DHT22;18899;50.748;7.102;2024-01-16T01:53:38;3.30;99.90
32446;DHT22;18899;50.748;7.102;2024-01-16T01:56:05;3.30;99.90
32446;DHT22;18899;50.748;7.102;2024-01-16T01:58:33;3.20;99.90
32446;DHT22;18899;50.748;7.102;2024-01-16T02:01:01;3.30;99.90
32446;DHT22;18899;50.748;7.102;2024-01-16T02:03:29;3.20;99.90
32446;DHT22;18899;50.748;7.102;2024-01-16T02:05:58;3.10;99.90
32446;DHT22;18899;50.748;7.102;2024-01-16T02:08:24;3.10;99.90
32446;DHT22;18899;50.748;7.102;2024-01-16T02:10:50;3.20;99.90
32446;DHT22;18899;50.748;7.102;2024-01-16T02:13:16;3.10;99.90
32446;DHT22;18899;50.748;7.102;2024-01-16T02:15:46;3.10;99.90
32446;DHT22;18899;50.748;7.102;2024-01-16T02:18:11;3.10;99.90
32446;DHT22;18899;50.748;7.102;2024-01-16T02:20:37;3.10;99.90
32446;DHT22;18899;50.748;7.102;2024-01-16T02:23:03;3.20;99.90
32446;DHT22;18899;50.748;7.102;2024-01-16T02:25:30;3.10;99.90
32446;DHT22;18899;50.748;7.102;2024-01-16T02:27:55;3.20;99.90
32446;DHT22;18899;50.748;7.102;2024-01-16T02:30:21;3.10;99.90
32446;DHT22;18899;50.748;7.102;2024-01-16T02:32:46;3.00;99.90
32446;DHT22;18899;50.748;7.102;2024-01-16T02:35:13;2.90;99.90
32446;DHT22;18899;50.748;7.102;2024-01-16T02:37:38;2.90;99.90
32446;DHT22;18899;50.748;7.102;2024-01-16T02:40:04;2.90;99.90
32446;DHT22;18899;50.748;7.102;2024-01-16T02:42:34;2.90;99.90
32446;DHT22;18899;50.748;7.102;2024-01-16T02:45:01;2.80;99.90
32446;DHT22;18899;50.748;7.102;2024-01-16T02:47:29;2.90;99.90
32446;DHT22;18899;50.748;7.102;2024-01-16T02:49:54;3.00;99.90
32446;DHT22;18899;50.748;7.102;2024-01-16T02:52:20;3.00;99.90
32446;DHT22;18899;50.748;7.102;2024-01-16T02:54:45;2.90;99.90
32446;DHT22;18899;50.748;7.102;2024-01-16T02:57:11;2.80;99.90
32446;DHT22;18899;50.748;7.102;2024-01-16T02:59:36;2.70;99.90
32446;DHT22;18899;50.748;7.102;2024-01-16T03:02:02;2.70;99.90
32446;DHT22;18899;50.748;7.102;2024-01-16T03:04:28;2.60;99.90
32446;DHT22;18899;50.748;7.102;2024-01-16T03:06:53;2.70;99.90
32446;DHT22;18899;50.748;7.102;2024-01-16T03:09:19;2.70;99.90
32446;DHT22;18899;50.748;7.102;2024-01-16T03:11:44;2.80;99.90
32446;DHT22;18899;50.748;7.102;2024-01-16T03:14:10;2.80;99.90
32446;DHT22;18899;50.748;7.102;2024-01-16T03:16:35;2.80;99.90
32446;DHT22;18899;50.748;7.102;2024-01-16T03:19:01;2.80;99.90
32446;DHT22;18899;50.748;7.102;2024-01-16T03:21:26;2.90;99.90
32446;DHT22;18899;50.748;7.102;2024-01-16T03:23:52;2.80;99.90
32446;DHT22;18899;50.748;7.102;2024-01-16T03:26:17;3.00;99.90
32446;DHT22;18899;50.748;7.102;2024-01-16T03:28:43;3.00;99.90
32446;DHT22;18899;50.748;7.102;2024-01-16T03:31:09;3.10;99.90
32446;DHT22;18899;50.748;7.102;2024-01-16T03:33:34;3.20;99.90
32446;DHT22;18899;50.748;7.102;2024-01-16T03:36:01;3.20;99.90
32446;DHT22;18899;50.748;7.102;2024-01-16T03:38:26;3.20;99.90
32446;DHT22;18899;50.748;7.102;2024-01-16T03:40:52;3.20;99.90
32446;DHT22;18899;50.748;7.102;2024-01-16T03:43:18;3.30;99.90
32446;DHT22;18899;50.748;7.102;2024-01-16T03:45:44;3.20;99.90
32446;DHT22;18899;50.748;7.102;2024-01-16T03:48:09;3.00;99.90
32446;DHT22;18899;50.748;7.102;2024-01-16T03:50:35;3.10;99.90
32446;DHT22;18899;50.748;7.102;2024-01-16T03:53:02;3.30;99.90
32446;DHT22;18899;50.748;7.102;2024-01-16T03:55:29;3.40;99.90
32446;DHT22;18899;50.748;7.102;2024-01-16T03:57:55;3.40;99.90
32446;DHT22;18899;50.748;7.102;2024-01-16T04:00:21;3.30;99.90
32446;DHT22;18899;50.748;7.102;2024-01-16T04:02:46;3.20;99.90
32446;DHT22;18899;50.748;7.102;2024-01-16T04:05:13;3.10;99.90
32446;DHT22;18899;50.748;7.102;2024-01-16T04:07:38;3.00;99.90
32446;DHT22;18899;50.748;7.102;2024-01-16T04:10:05;3.00;99.90
32446;DHT22;18899;50.748;7.102;2024-01-16T04:12:31;3.00;99.90
32446;DHT22;18899;50.748;7.102;2024-01-16T04:14:57;3.00;99.90
32446;DHT22;18899;50.748;7.102;2024-01-16T04:17:22;2.90;99.90
32446;DHT22;18899;50.748;7.102;2024-01-16T04:19:48;2.70;99.90
32446;DHT22;18899;50.748;7.102;2024-01-16T04:22:13;2.60;99.90
32446;DHT22;18899;50.748;7.102;2024-01-16T04:24:39;2.50;99.90
32446;DHT22;18899;50.748;7.102;2024-01-16T04:27:04;2.60;99.90
32446;DHT22;18899;50.748;7.102;2024-01-16T04:29:30;2.60;99.90
32446;DHT22;18899;50.748;7.102;2024-01-16T04:31:57;2.50;99.90
32446;DHT22;18899;50.748;7.102;2024-01-16T04:34:22;2.50;99.90
32446;DHT22;18899;50.748;7.102;2024-01-16T04:36:48;2.40;99.90
32446;DHT22;18899;50.748;7.102;2024-01-16T04:39:14;2.50;99.90
32446;DHT22;18899;50.748;7.102;2024-01-16T04:41:39;2.50;99.90
32446;DHT22;18899;50.748;7.102;2024-01-16T04:44:05;2.60;99.90
32446;DHT22;18899;50.748;7.102;2024-01-16T04:46:30;2.60;99.90
32446;DHT22;18899;50.748;7.102;2024-01-16T04:48:56;2.60;99.90
32446;DHT22;18899;50.748;7.102;2024-01-16T04:51:21;2.60;99.90
32446;DHT22;18899;50.748;7.102;2024-01-16T04:53:47;2.70;99.90
32446;DHT22;18899;50.748;7.102;2024-01-16T04:56:12;2.70;99.90
32446;DHT22;18899;50.748;7.102;2024-01-16T04:58:38;2.70;99.90
32446;DHT22;18899;50.748;7.102;2024-01-16T05:01:03;2.70;99.90
32446;DHT22;18899;50.748;7.102;2024-01-16T05:03:29;2.70;99.90
32446;DHT22;18899;50.748;7.102;2024-01-16T05:05:54;2.70;99.90
32446;DHT22;18899;50.748;7.102;2024-01-16T05:08:22;2.80;99.90
32446;DHT22;18899;50.748;7.102;2024-01-16T05:10:47;2.80;99.90
32446;DHT22;18899;50.748;7.102;2024-01-16T05:13:13;2.80;99.90
32446;DHT22;18899;50.748;7.102;2024-01-16T05:15:39;2.80;99.90
32446;DHT22;18899;50.748;7.102;2024-01-16T05:18:05;2.70;99.90
32446;DHT22;18899;50.748;7.102;2024-01-16T05:20:31;2.70;99.90
32446;DHT22;18899;50.748;7.102;2024-01-16T05:22:56;2.80;99.90
32446;DHT22;18899;50.748;7.102;2024-01-16T05:25:22;2.80;99.90
32446;DHT22;18899;50.748;7.102;2024-01-16T05:27:47;2.80;99.90
32446;DHT22;18899;50.748;7.102;2024-01-16T05:30:14;2.80;99.90
32446;DHT22;18899;50.748;7.102;2024-01-16T05:32:40;2.70;99.90
32446;DHT22;18899;50.748;7.102;2024-01-16T05:35:07;2.70;99.90
32446;DHT22;18899;50.748;7.102;2024-01-16T05:37:33;2.70;99.90
32446;DHT22;18899;50.748;7.102;2024-01-16T05:39:58;2.70;99.90
32446;DHT22;18899;50.748;7.102;2024-01-16T05:42:24;2.70;99.90
32446;DHT22;18899;50.748;7.102;2024-01-16T05:44:50;2.70;99.90
32446;DHT22;18899;50.748;7.102;2024-01-16T05:47:15;2.70;99.90
32446;DHT22;18899;50.748;7.102;2024-01-16T05:49:40;2.60;99.90
32446;DHT22;18899;50.748;7.102;2024-01-16T05:52:08;2.60;99.90
32446;DHT22;18899;50.748;7.102;2024-01-16T05:54:33;2.50;99.90
32446;DHT22;18899;50.748;7.102;2024-01-16T05:56:59;2.60;99.90
32446;DHT22;18899;50.748;7.102;2024-01-16T05:59:24;2.60;99.90
32446;DHT22;18899;50.748;7.102;2024-01-16T06:01:50;2.60;99.90
32446;DHT22;18899;50.748;7.102;2024-01-16T06:04:16;2.60;99.90
32446;DHT22;18899;50.748;7.102;2024-01-16T06:06:41;2.70;99.90
32446;DHT22;18899;50.748;7.102;2024-01-16T06:09:12;2.80;99.90
32446;DHT22;18899;50.748;7.102;2024-01-16T06:11:39;2.90;99.90
32446;DHT22;18899;50.748;7.102;2024-01-16T06:14:06;2.90;99.90
32446;DHT22;18899;50.748;7.102;2024-01-16T06:16:32;3.00;99.90
32446;DHT22;18899;50.748;7.102;2024-01-16T06:18:58;3.00;99.90
32446;DHT22;18899;50.748;7.102;2024-01-16T06:21:23;3.00;99.90
32446;DHT22;18899;50.748;7.102;2024-01-16T06:23:49;2.90;99.90
32446;DHT22;18899;50.748;7.102;2024-01-16T06:26:15;3.00;99.90
32446;DHT22;18899;50.748;7.102;2024-01-16T06:28:40;2.90;99.90
32446;DHT22;18899;50.748;7.102;2024-01-16T06:31:08;2.90;99.90
32446;DHT22;18899;50.748;7.102;2024-01-16T06:33:34;2.90;99.90
32446;DHT22;18899;50.748;7.102;2024-01-16T06:35:59;2.90;99.90
32446;DHT22;18899;50.748;7.102;2024-01-16T06:38:25;2.90;99.90
32446;DHT22;18899;50.748;7.102;2024-01-16T06:40:50;2.80;99.90
32446;DHT22;18899;50.748;7.102;2024-01-16T06:43:16;2.80;99.90
32446;DHT22;18899;50.748;7.102;2024-01-16T06:45:42;2.80;99.90
32446;DHT22;18899;50.748;7.102;2024-01-16T06:48:08;2.90;99.90
32446;DHT22;18899;50.748;7.102;2024-01-16T06:50:33;2.90;99.90
32446;DHT22;18899;50.748;7.102;2024-01-16T06:52:59;2.80;99.90
32446;DHT22;18899;50.748;7.102;2024-01-16T06:55:25;2.90;99.90
32446;DHT22;18899;50.748;7.102;2024-01-16T06:57:50;3.00;99.90
32446;DHT22;18899;50.748;7.102;2024-01-16T07:00:16;3.00;99.90
32446;DHT22;18899;50.748;7.102;2024-01-16T07:02:41;3.10;99.90
32446;DHT22;18899;50.748;7.102;2024-01-16T07:05:11;3.10;99.90
32446;DHT22;18899;50.748;7.102;2024-01-16T07:07:37;3.10;99.90
32446;DHT22;18899;50.748;7.102;2024-01-16T07:10:04;3.00;99.90
32446;DHT22;18899;50.748;7.102;2024-01-16T07:12:32;3.10;99.90
32446;DHT22;18899;50.748;7.102;2024-01-16T07:14:57;3.10;99.90
32446;DHT22;18899;50.748;7.102;2024-01-16T07:17:23;3.10;99.90
32446;DHT22;18899;50.748;7.102;2024-01-16T07:19:48;3.10;99.90
32446;DHT22;18899;50.748;7.102;2024-01-16T07:22:14;2.90;99.90
32446;DHT22;18899;50.748;7.102;2024-01-16T07:24:40;2.80;99.90
32446;DHT22;18899;50.748;7.102;2024-01-16T07:27:05;2.80;99.90
32446;DHT22;18899;50.748;7.102;2024-01-16T07:29:31;2.70;99.90
32446;DHT22;18899;50.748;7.102;2024-01-16T07:31:56;2.60;99.90
32446;DHT22;18899;50.748;7.102;2024-01-16T07:34:22;2.60;99.90
32446;DHT22;18899;50.748;7.102;2024-01-16T07:36:48;2.50;99.90
32446;DHT22;18899;50.748;7.102;2024-01-16T07:39:13;2.50;99.90
32446;DHT22;18899;50.748;7.102;2024-01-16T07:41:39;2.50;99.90
32446;DHT22;18899;50.748;7.102;2024-01-16T07:44:05;2.40;99.90
32446;DHT22;18899;50.748;7.102;2024-01-16T07:46:31;2.40;99.90
32446;DHT22;18899;50.748;7.102;2024-01-16T07:48:56;2.30;99.90
32446;DHT22;18899;50.748;7.102;2024-01-16T07:51:22;2.20;99.90
32446;DHT22;18899;50.748;7.102;2024-01-16T07:53:47;2.30;99.90
32446;DHT22;18899;50.748;7.102;2024-01-16T07:56:14;2.30;99.90
32446;DHT22;18899;50.748;7.102;2024-01-16T07:58:40;2.30;99.90
32446;DHT22;18899;50.748;7.102;2024-01-16T08:01:05;2.50;99.90
32446;DHT22;18899;50.748;7.102;2024-01-16T08:03:31;2.40;99.90
32446;DHT22;18899;50.748;7.102;2024-01-16T08:05:56;2.50;99.90
32446;DHT22;18899;50.748;7.102;2024-01-16T08:08:22;2.50;99.90
32446;DHT22;18899;50.748;7.102;2024-01-16T08:10:48;2.50;99.90
32446;DHT22;18899;50.748;7.102;2024-01-16T08:13:14;2.50;99.90
32446;DHT22;18899;50.748;7.102;2024-01-16T08:15:39;2.40;99.90
32446;DHT22;18899;50.748;7.102;2024-01-16T08:18:05;2.40;99.90
32446;DHT22;18899;50.748;7.102;2024-01-16T08:20:30;2.40;99.90
32446;DHT22;18899;50.748;7.102;2024-01-16T08:22:56;2.50;99.90
32446;DHT22;18899;50.748;7.102;2024-01-16T08:25:22;2.50;99.90
32446;DHT22;18899;50.748;7.102;2024-01-16T08:27:47;2.60;99.90
32446;DHT22;18899;50.748;7.102;2024-01-16T08:30:13;2.60;99.90
32446;DHT22;18899;50.748;7.102;2024-01-16T08:32:39;2.60;99.90
32446;DHT22;18899;50.748;7.102;2024-01-16T08:35:05;2.50;99.90
32446;DHT22;18899;50.748;7.102;2024-01-16T08:37:33;2.50;99.90
32446;DHT22;18899;50.748;7.102;2024-01-16T08:39:59;2.50;99.90
32446;DHT22;18899;50.748;7.102;2024-01-16T08:42:25;2.40;99.90
32446;DHT22;18899;50.748;7.102;2024-01-16T08:44:51;2.50;99.90
32446;DHT22;18899;50.748;7.102;2024-01-16T08:47:16;2.40;99.90
32446;DHT22;18899;50.748;7.102;2024-01-16T08:49:42;2.40;99.90
32446;DHT22;18899;50.748;7.102;2024-01-16T08:52:08;2.50;99.90
32446;DHT22;18899;50.748;7.102;2024-01-16T08:54:35;2.60;99.90
32446;DHT22;18899;50.748;7.102;2024-01-16T08:57:00;2.90;99.90
32446;DHT22;18899;50.748;7.102;2024-01-16T08:59:26;3.10;99.90
32446;DHT22;18899;50.748;7.102;2024-01-16T09:01:52;3.20;99.90
32446;DHT22;18899;50.748;7.102;2024-01-16T09:04:17;3.30;99.90
32446;DHT22;18899;50.748;7.102;2024-01-16T09:06:43;3.40;99.90
32446;DHT22;18899;50.748;7.102;2024-01-16T09:09:08;3.60;99.90
32446;DHT22;18899;50.748;7.102;2024-01-16T09:11:34;3.60;99.90
32446;DHT22;18899;50.748;7.102;2024-01-16T09:14:00;3.80;99.90
32446;DHT22;18899;50.748;7.102;2024-01-16T09:16:25;3.90;99.90
32446;DHT22;18899;50.748;7.102;2024-01-16T09:18:51;4.20;99.90
32446;DHT22;18899;50.748;7.102;2024-01-16T09:21:16;4.60;99.90
32446;DHT22;18899;50.748;7.102;2024-01-16T09:23:42;4.80;99.90
32446;DHT22;18899;50.748;7.102;2024-01-16T09:26:07;4.80;99.90
32446;DHT22;18899;50.748;7.102;2024-01-16T09:28:33;4.90;99.90
32446;DHT22;18899;50.748;7.102;2024-01-16T09:30:58;4.80;99.90
32446;DHT22;18899;50.748;7.102;2024-01-16T09:33:24;4.60;99.90
32446;DHT22;18899;50.748;7.102;2024-01-16T09:35:51;4.50;99.90
32446;DHT22;18899;50.748;7.102;2024-01-16T09:38:16;4.50;99.90
32446;DHT22;18899;50.748;7.102;2024-01-16T09:40:42;4.50;99.90
32446;DHT22;18899;50.748;7.102;2024-01-16T09:43:08;4.40;99.90
32446;DHT22;18899;50.748;7.102;2024-01-16T09:45:37;4.20;99.90
32446;DHT22;18899;50.748;7.102;2024-01-16T09:48:04;4.20;99.90
32446;DHT22;18899;50.748;7.102;2024-01-16T09:50:30;4.10;99.90
32446;DHT22;18899;50.748;7.102;2024-01-16T09:52:56;4.00;99.90
32446;DHT22;18899;50.748;7.102;2024-01-16T09:55:22;4.00;99.90
32446;DHT22;18899;50.748;7.102;2024-01-16T09:57:52;3.90;99.90
32446;DHT22;18899;50.748;7.102;2024-01-16T10:00:18;4.10;99.90
32446;DHT22;18899;50.748;7.102;2024-01-16T10:02:45;4.40;99.90
32446;DHT22;18899;50.748;7.102;2024-01-16T10:05:11;4.90;99.90
32446;DHT22;18899;50.748;7.102;2024-01-16T10:07:38;5.40;99.70
32446;DHT22;18899;50.748;7.102;2024-01-16T10:10:04;5.90;98.30
32446;DHT22;18899;50.748;7.102;2024-01-16T10:12:30;6.50;95.00
32446;DHT22;18899;50.748;7.102;2024-01-16T10:14:56;6.50;93.70
32446;DHT22;18899;50.748;7.102;2024-01-16T10:17:22;6.50;93.10
32446;DHT22;18899;50.748;7.102;2024-01-16T10:20:00;6.30;93.20
32446;DHT22;18899;50.748;7.102;2024-01-16T10:22:29;5.90;93.30
32446;DHT22;18899;50.748;7.102;2024-01-16T10:27:34;5.00;95.80
32446;DHT22;18899;50.748;7.102;2024-01-16T10:30:00;4.70;96.00
32446;DHT22;18899;50.748;7.102;2024-01-16T10:32:30;4.30;97.20
32446;DHT22;18899;50.748;7.102;2024-01-16T10:40:10;4.10;99.60
32446;DHT22;18899;50.748;7.102;2024-01-16T10:42:38;4.10;99.90
32446;DHT22;18899;50.748;7.102;2024-01-16T10:45:05;4.00;99.90
32446;DHT22;18899;50.748;7.102;2024-01-16T10:47:31;4.00;99.90
32446;DHT22;18899;50.748;7.102;2024-01-16T10:50:00;4.10;99.90
32446;DHT22;18899;50.748;7.102;2024-01-16T10:52:27;4.20;99.90
32446;DHT22;18899;50.748;7.102;2024-01-16T10:54:57;4.40;99.90
32446;DHT22;18899;50.748;7.102;2024-01-16T10:57:25;4.50;98.70
32446;DHT22;18899;50.748;7.102;2024-01-16T11:00:02;4.40;99.10
32446;DHT22;18899;50.748;7.102;2024-01-16T11:02:34;4.30;99.90
32446;DHT22;18899;50.748;7.102;2024-01-16T11:05:02;4.40;99.60
32446;DHT22;18899;50.748;7.102;2024-01-16T11:07:29;4.40;99.90
32446;DHT22;18899;50.748;7.102;2024-01-16T11:09:55;4.30;99.90
32446;DHT22;18899;50.748;7.102;2024-01-16T11:12:22;4.20;99.80
32446;DHT22;18899;50.748;7.102;2024-01-16T11:14:50;4.10;99.90
32446;DHT22;18899;50.748;7.102;2024-01-16T11:17:19;4.00;99.90
32446;DHT22;18899;50.748;7.102;2024-01-16T11:19:46;4.00;99.90
32446;DHT22;18899;50.748;7.102;2024-01-16T11:22:13;4.00;99.90
32446;DHT22;18899;50.748;7.102;2024-01-16T11:24:39;3.80;99.90
32446;DHT22;18899;50.748;7.102;2024-01-16T11:27:05;3.80;99.90
32446;DHT22;18899;50.748;7.102;2024-01-16T11:31:57;4.00;99.90
32446;DHT22;18899;50.748;7.102;2024-01-16T11:37:11;4.10;99.90
32446;DHT22;18899;50.748;7.102;2024-01-16T11:39:37;4.20;99.90
32446;DHT22;18899;50.748;7.102;2024-01-16T11:42:03;4.50;99.90
32446;DHT22;18899;50.748;7.102;2024-01-16T11:44:42;4.60;99.80
32446;DHT22;18899;50.748;7.102;2024-01-16T11:47:09;4.80;99.90
32446;DHT22;18899;50.748;7.102;2024-01-16T11:49:36;5.00;99.10
32446;DHT22;18899;50.748;7.102;2024-01-16T11:52:02;5.20;98.10
32446;DHT22;18899;50.748;7.102;2024-01-16T11:54:27;5.30;97.70
32446;DHT22;18899;50.748;7.102;2024-01-16T12:00:03;5.80;96.20
32446;DHT22;18899;50.748;7.102;2024-01-16T12:05:06;6.10;93.80
32446;DHT22;18899;50.748;7.102;2024-01-16T12:07:51;5.90;93.60
32446;DHT22;18899;50.748;7.102;2024-01-16T12:10:19;5.70;93.10
32446;DHT22;18899;50.748;7.102;2024-01-16T12:12:46;5.40;94.00
32446;DHT22;18899;50.748;7.102;2024-01-16T12:15:16;5.30;94.10
32446;DHT22;18899;50.748;7.102;2024-01-16T12:17:59;5.20;93.20
32446;DHT22;18899;50.748;7.102;2024-01-16T12:20:26;5.00;93.50
32446;DHT22;18899;50.748;7.102;2024-01-16T12:22:57;4.90;94.00
32446;DHT22;18899;50.748;7.102;2024-01-16T12:25:25;4.90;94.30
32446;DHT22;18899;50.748;7.102;2024-01-16T12:28:04;5.00;94.10
32446;DHT22;18899;50.748;7.102;2024-01-16T12:30:34;5.00;94.20
32446;DHT22;18899;50.748;7.102;2024-01-16T12:33:05;4.70;94.70
32446;DHT22;18899;50.748;7.102;2024-01-16T12:35:33;4.60;95.80
32446;DHT22;18899;50.748;7.102;2024-01-16T12:38:00;4.50;95.20
32446;DHT22;18899;50.748;7.102;2024-01-16T12:40:26;4.60;95.10
32446;DHT22;18899;50.748;7.102;2024-01-16T12:42:52;4.40;94.40
32446;DHT22;18899;50.748;7.102;2024-01-16T12:45:18;4.20;94.40
32446;DHT22;18899;50.748;7.102;2024-01-16T12:47:49;4.20;95.00
32446;DHT22;18899;50.748;7.102;2024-01-16T12:50:25;4.20;94.00
32446;DHT22;18899;50.748;7.102;2024-01-16T12:53:05;4.00;94.80
32446;DHT22;18899;50.748;7.102;2024-01-16T12:55:33;3.90;95.30
32446;DHT22;18899;50.748;7.102;2024-01-16T12:58:18;3.90;95.50
32446;DHT22;18899;50.748;7.102;2024-01-16T13:00:45;3.80;95.50
32446;DHT22;18899;50.748;7.102;2024-01-16T13:03:21;3.70;96.30
32446;DHT22;18899;50.748;7.102;2024-01-16T13:05:58;3.70;96.60
32446;DHT22;18899;50.748;7.102;2024-01-16T13:08:25;3.70;97.20
32446;DHT22;18899;50.748;7.102;2024-01-16T13:11:04;3.60;96.70
32446;DHT22;18899;50.748;7.102;2024-01-16T13:13:30;3.60;97.60
32446;DHT22;18899;50.748;7.102;2024-01-16T13:15:57;3.70;98.60
32446;DHT22;18899;50.748;7.102;2024-01-16T13:18:24;3.80;98.50
32446;DHT22;18899;50.748;7.102;2024-01-16T13:20:51;3.80;97.40
32446;DHT22;18899;50.748;7.102;2024-01-16T13:23:17;3.70;98.10
32446;DHT22;18899;50.748;7.102;2024-01-16T13:25:43;3.70;98.00
32446;DHT22;18899;50.748;7.102;2024-01-16T13:28:17;3.80;97.20
32446;DHT22;18899;50.748;7.102;2024-01-16T13:30:43;3.80;97.40
32446;DHT22;18899;50.748;7.102;2024-01-16T13:33:09;3.90;96.90
32446;DHT22;18899;50.748;7.102;2024-01-16T13:35:37;4.10;95.60
32446;DHT22;18899;50.748;7.102;2024-01-16T13:38:03;3.90;95.50
32446;DHT22;18899;50.748;7.102;2024-01-16T13:40:29;3.80;95.90
32446;DHT22;18899;50.748;7.102;2024-01-16T13:42:55;3.80;96.50
32446;DHT22;18899;50.748;7.102;2024-01-16T13:45:20;3.70;96.60
32446;DHT22;18899;50.748;7.102;2024-01-16T13:47:46;3.80;96.20
32446;DHT22;18899;50.748;7.102;2024-01-16T13:50:11;3.70;95.70
32446;DHT22;18899;50.748;7.102;2024-01-16T13:52:38;3.70;95.90
32446;DHT22;18899;50.748;7.102;2024-01-16T13:55:06;3.60;95.80
32446;DHT22;18899;50.748;7.102;2024-01-16T13:57:32;3.60;96.00
32446;DHT22;18899;50.748;7.102;2024-01-16T13:59:58;3.60;95.80
32446;DHT22;18899;50.748;7.102;2024-01-16T14:02:24;3.60;95.80
32446;DHT22;18899;50.748;7.102;2024-01-16T14:04:50;3.60;95.80
32446;DHT22;18899;50.748;7.102;2024-01-16T14:07:15;3.50;95.90
32446;DHT22;18899;50.748;7.102;2024-01-16T14:09:41;3.50;95.90
32446;DHT22;18899;50.748;7.102;2024-01-16T14:12:07;3.40;96.00
32446;DHT22;18899;50.748;7.102;2024-01-16T14:14:34;3.30;95.40
32446;DHT22;18899;50.748;7.102;2024-01-16T14:16:59;3.10;95.50
32446;DHT22;18899;50.748;7.102;2024-01-16T14:19:25;3.00;95.90
32446;DHT22;18899;50.748;7.102;2024-01-16T14:21:52;2.90;96.30
32446;DHT22;18899;50.748;7.102;2024-01-16T14:24:18;2.90;96.50
32446;DHT22;18899;50.748;7.102;2024-01-16T14:26:44;2.80;96.60
32446;DHT22;18899;50.748;7.102;2024-01-16T14:29:10;2.80;97.00
32446;DHT22;18899;50.748;7.102;2024-01-16T14:31:36;2.80;96.70
32446;DHT22;18899;50.748;7.102;2024-01-16T14:34:01;2.80;97.00
32446;DHT22;18899;50.748;7.102;2024-01-16T14:36:29;2.80;96.50
32446;DHT22;18899;50.748;7.102;2024-01-16T14:38:54;2.80;96.90
32446;DHT22;18899;50.748;7.102;2024-01-16T14:41:20;2.80;96.50
32446;DHT22;18899;50.748;7.102;2024-01-16T14:43:47;2.80;96.60
32446;DHT22;18899;50.748;7.102;2024-01-16T14:46:12;2.70;96.90
32446;DHT22;18899;50.748;7.102;2024-01-16T14:48:43;2.70;97.10
32446;DHT22;18899;50.748;7.102;2024-01-16T14:51:09;2.60;97.80
32446;DHT22;18899;50.748;7.102;2024-01-16T14:53:36;2.60;97.70
32446;DHT22;18899;50.748;7.102;2024-01-16T14:56:01;2.60;98.20
32446;DHT22;18899;50.748;7.102;2024-01-16T14:58:28;2.60;97.70
32446;DHT22;18899;50.748;7.102;2024-01-16T15:00:53;2.50;97.20
32446;DHT22;18899;50.748;7.102;2024-01-16T15:03:21;2.40;97.20
32446;DHT22;18899;50.748;7.102;2024-01-16T15:05:48;2.40;97.40
32446;DHT22;18899;50.748;7.102;2024-01-16T15:08:13;2.40;97.50
32446;DHT22;18899;50.748;7.102;2024-01-16T15:10:39;2.30;97.90
32446;DHT22;18899;50.748;7.102;2024-01-16T15:13:05;2.30;97.70
32446;DHT22;18899;50.748;7.102;2024-01-16T15:15:30;2.20;98.30
32446;DHT22;18899;50.748;7.102;2024-01-16T15:17:56;2.20;97.80
32446;DHT22;18899;50.748;7.102;2024-01-16T15:20:21;2.10;97.80
32446;DHT22;18899;50.748;7.102;2024-01-16T15:22:47;2.10;98.10
32446;DHT22;18899;50.748;7.102;2024-01-16T15:25:17;2.10;98.30
32446;DHT22;18899;50.748;7.102;2024-01-16T15:27:46;2.00;98.30
32446;DHT22;18899;50.748;7.102;2024-01-16T15:30:13;1.90;98.90
32446;DHT22;18899;50.748;7.102;2024-01-16T15:32:39;1.80;99.40
32446;DHT22;18899;50.748;7.102;2024-01-16T15:35:05;1.80;99.10
32446;DHT22;18899;50.748;7.102;2024-01-16T15:37:34;1.80;99.20
32446;DHT22;18899;50.748;7.102;2024-01-16T15:40:00;1.80;99.20
32446;DHT22;18899;50.748;7.102;2024-01-16T15:42:26;1.70;99.70
32446;DHT22;18899;50.748;7.102;2024-01-16T15:44:54;1.70;99.00
32446;DHT22;18899;50.748;7.102;2024-01-16T15:47:20;1.70;99.20
32446;DHT22;18899;50.748;7.102;2024-01-16T15:49:46;1.60;99.40
32446;DHT22;18899;50.748;7.102;2024-01-16T15:52:14;1.60;99.20
32446;DHT22;18899;50.748;7.102;2024-01-16T15:54:40;1.70;99.40
32446;DHT22;18899;50.748;7.102;2024-01-16T15:57:06;1.60;99.70
32446;DHT22;18899;50.748;7.102;2024-01-16T15:59:31;1.60;99.70